createdAt,value
2022-08-25T00:00:25.236Z,0.60
2022-08-25T00:02:58.421Z,0.20
2022-08-25T00:05:34.584Z,0.10
2022-08-25T00:08:09.777Z,0.10
2022-08-25T00:10:43.477Z,0.00
2022-08-25T00:13:34.943Z,0.22
2022-08-25T00:16:07.360Z,0.00
2022-08-25T00:18:40.195Z,0.00
2022-08-25T00:21:13.043Z,0.80
2022-08-25T00:23:45.642Z,0.32
2022-08-25T00:26:17.829Z,0.08
2022-08-25T00:28:49.000Z,0.00
2022-08-25T00:31:22.787Z,0.00
2022-08-25T00:33:57.897Z,0.00
2022-08-25T00:36:32.163Z,0.50
2022-08-25T00:39:04.177Z,0.08
2022-08-25T00:41:38.282Z,0.00
2022-08-25T00:44:13.198Z,0.00
2022-08-25T00:46:48.822Z,0.00
2022-08-25T00:49:26.826Z,0.00
2022-08-25T00:52:02.885Z,0.05
2022-08-25T00:54:45.442Z,0.00
2022-08-25T00:57:22.097Z,0.00
2022-08-25T01:00:09.360Z,0.00
2022-08-25T01:02:41.940Z,0.00
2022-08-25T01:05:13.531Z,0.00
2022-08-25T01:07:48.523Z,0.00
2022-08-25T01:10:21.826Z,0.00
2022-08-25T01:12:53.698Z,0.00
2022-08-25T01:15:26.429Z,0.00
2022-08-25T01:17:59.927Z,0.00
2022-08-25T01:20:33.657Z,0.22
2022-08-25T01:23:05.701Z,0.17
2022-08-25T01:26:07.056Z,0.00
2022-08-25T01:28:40.085Z,0.00
2022-08-25T01:31:23.856Z,0.00
2022-08-25T01:33:56.729Z,0.00
2022-08-25T01:36:30.805Z,0.10
2022-08-25T01:39:02.260Z,0.00
2022-08-25T01:41:38.796Z,0.00
2022-08-25T01:44:15.918Z,0.00
2022-08-25T01:46:49.113Z,0.00
2022-08-25T01:49:19.731Z,0.10
2022-08-25T01:52:02.927Z,0.00
2022-08-25T01:54:34.587Z,0.00
2022-08-25T01:57:05.601Z,0.00
2022-08-25T01:59:36.321Z,0.00
2022-08-25T02:02:10.648Z,0.00
2022-08-25T02:04:42.517Z,0.00
2022-08-25T02:07:15.305Z,0.10
2022-08-25T02:09:46.443Z,0.00
2022-08-25T02:13:16.982Z,0.00
2022-08-25T02:15:51.362Z,0.00
2022-08-25T02:18:22.843Z,0.00
2022-08-25T02:20:54.601Z,0.00
2022-08-25T02:23:25.326Z,0.25
2022-08-25T02:25:56.401Z,0.10
2022-08-25T02:28:27.722Z,0.10
2022-08-25T02:31:01.495Z,0.00
2022-08-25T02:33:33.725Z,0.00
2022-08-25T02:36:05.727Z,0.00
2022-08-25T02:38:38.928Z,0.00
2022-08-25T02:41:21.103Z,0.00
2022-08-25T02:43:54.886Z,0.10
2022-08-25T02:46:27.693Z,0.55
2022-08-25T02:49:00.495Z,0.00
2022-08-25T02:51:32.195Z,0.55
2022-08-25T02:54:04.917Z,0.00
2022-08-25T02:56:36.253Z,0.00
2022-08-25T02:59:08.774Z,0.20
2022-08-25T03:01:41.514Z,0.00
2022-08-25T03:04:12.480Z,0.20
2022-08-25T03:06:43.243Z,0.10
2022-08-25T03:09:14.464Z,0.10
2022-08-25T03:11:45.248Z,0.00
2022-08-25T03:14:16.995Z,0.00
2022-08-25T03:16:48.407Z,0.10
2022-08-25T03:19:20.426Z,0.00
2022-08-25T03:21:52.276Z,0.03
2022-08-25T03:24:23.027Z,0.00
2022-08-25T03:26:57.517Z,0.00
2022-08-25T03:29:30.922Z,0.10
2022-08-25T03:32:03.360Z,0.10
2022-08-25T03:34:34.863Z,0.00
2022-08-25T03:37:06.532Z,0.20
2022-08-25T03:39:38.382Z,0.10
2022-08-25T03:42:10.400Z,0.10
2022-08-25T03:44:42.352Z,0.00
2022-08-25T03:47:14.225Z,0.00
2022-08-25T03:49:45.446Z,0.10
2022-08-25T03:52:16.378Z,0.10
2022-08-25T03:54:48.759Z,0.00
2022-08-25T03:57:20.343Z,0.00
2022-08-25T03:59:51.181Z,0.98
2022-08-25T04:02:22.168Z,0.80
2022-08-25T04:04:52.846Z,1.23
2022-08-25T04:07:26.760Z,0.00
2022-08-25T04:10:00.345Z,0.00
2022-08-25T04:12:32.987Z,0.00
2022-08-25T04:15:06.383Z,2.08
2022-08-25T04:17:39.343Z,0.75
2022-08-25T04:20:14.303Z,0.00
2022-08-25T04:22:45.370Z,0.13
2022-08-25T04:25:16.626Z,0.22
2022-08-25T04:27:47.243Z,1.05
2022-08-25T04:30:18.504Z,1.00
2022-08-25T04:32:50.580Z,0.65
2022-08-25T04:35:21.443Z,0.00
2022-08-25T04:37:52.060Z,0.00
2022-08-25T04:40:23.834Z,1.15
2022-08-25T04:43:00.939Z,0.03
2022-08-25T04:45:31.991Z,0.08
2022-08-25T04:48:03.498Z,0.00
2022-08-25T04:50:35.753Z,0.03
2022-08-25T04:53:08.771Z,0.00
2022-08-25T04:55:52.480Z,0.10
2022-08-25T04:58:24.135Z,0.00
2022-08-25T05:00:55.128Z,0.00
2022-08-25T05:03:26.127Z,0.65
2022-08-25T05:05:56.772Z,0.10
2022-08-25T05:08:32.719Z,0.25
2022-08-25T05:11:09.179Z,0.00
2022-08-25T05:13:40.748Z,1.55
2022-08-25T05:16:12.115Z,0.98
2022-08-25T05:18:43.361Z,1.27
2022-08-25T05:21:27.246Z,0.15
2022-08-25T05:24:03.527Z,1.25
2022-08-25T05:26:35.821Z,0.00
2022-08-25T05:29:07.939Z,0.73
2022-08-25T05:31:43.066Z,0.00
2022-08-25T05:34:16.361Z,0.05
2022-08-25T05:36:47.115Z,1.80
2022-08-25T05:39:19.259Z,0.00
2022-08-25T05:41:52.328Z,0.00
2022-08-25T05:44:22.607Z,0.13
2022-08-25T05:46:53.533Z,0.05
2022-08-25T05:49:24.373Z,1.00
2022-08-25T05:51:56.083Z,1.60
2022-08-25T05:54:29.143Z,0.20
2022-08-25T05:57:00.599Z,0.17
2022-08-25T05:59:32.650Z,1.48
2022-08-25T06:02:24.439Z,0.63
2022-08-25T06:04:56.287Z,0.13
2022-08-25T06:07:27.126Z,0.35
2022-08-25T06:09:58.131Z,1.10
2022-08-25T06:12:28.794Z,0.70
2022-08-25T06:15:00.411Z,1.98
2022-08-25T06:17:32.628Z,0.80
2022-08-25T06:20:08.617Z,5.25
2022-08-25T06:22:41.345Z,0.40
2022-08-25T06:25:18.060Z,0.30
2022-08-25T06:27:50.312Z,0.32
2022-08-25T06:30:28.864Z,0.38
2022-08-25T06:33:00.329Z,0.28
2022-08-25T06:35:31.023Z,0.30
2022-08-25T06:38:04.651Z,0.20
2022-08-25T06:40:36.300Z,0.10
2022-08-25T06:43:11.973Z,1.88
2022-08-25T06:45:46.265Z,0.57
2022-08-25T06:48:18.952Z,0.75
2022-08-25T06:50:49.719Z,1.48
2022-08-25T06:53:20.412Z,2.40
2022-08-25T06:56:02.325Z,0.60
2022-08-25T06:58:37.677Z,1.75
2022-08-25T07:01:34.775Z,2.65
2022-08-25T07:04:12.943Z,1.75
2022-08-25T07:06:44.371Z,1.25
2022-08-25T07:09:17.724Z,1.00
2022-08-25T07:11:49.225Z,1.48
2022-08-25T07:14:22.738Z,1.95
2022-08-25T07:16:55.064Z,1.70
2022-08-25T07:19:26.224Z,2.60
2022-08-25T07:22:00.108Z,1.92
2022-08-25T07:24:32.184Z,1.20
2022-08-25T07:27:04.822Z,2.50
2022-08-25T07:32:32.632Z,3.63
2022-08-25T07:35:20.354Z,2.55
2022-08-25T07:37:59.992Z,2.20
2022-08-25T07:40:42.675Z,2.10
2022-08-25T07:43:17.195Z,2.17
2022-08-25T07:45:52.034Z,2.20
2022-08-25T07:48:23.126Z,2.22
2022-08-25T07:51:05.476Z,3.53
2022-08-25T07:53:46.376Z,2.75
2022-08-25T07:56:26.017Z,1.83
2022-08-25T07:58:57.351Z,1.95
2022-08-25T08:01:28.362Z,2.05
2022-08-25T08:04:03.527Z,2.75
2022-08-25T08:06:36.184Z,2.60
2022-08-25T08:09:07.221Z,2.75
2022-08-25T08:11:45.587Z,3.15
2022-08-25T08:14:24.401Z,3.22
2022-08-25T08:16:56.083Z,3.78
2022-08-25T08:19:26.894Z,2.85
2022-08-25T08:22:02.355Z,3.80
2022-08-25T08:24:54.063Z,2.83
2022-08-25T08:27:32.277Z,3.03
2022-08-25T08:30:05.087Z,3.70
2022-08-25T08:33:05.988Z,2.78
2022-08-25T08:35:26.637Z,3.40
2022-08-25T08:37:58.338Z,3.30
2022-08-25T08:40:29.731Z,5.45
2022-08-25T08:43:21.191Z,4.80
2022-08-25T08:45:58.053Z,6.07
2022-08-25T08:48:57.457Z,7.78
2022-08-25T08:51:58.788Z,4.80
2022-08-25T08:54:34.222Z,4.60
2022-08-25T08:57:24.892Z,2.70
2022-08-25T09:00:06.602Z,4.55
2022-08-25T09:02:51.685Z,3.50
2022-08-25T09:05:27.439Z,3.83
2022-08-25T09:08:02.477Z,4.18
2022-08-25T09:11:02.318Z,5.15
2022-08-25T09:14:04.515Z,4.93
2022-08-25T09:16:57.632Z,5.75
2022-08-25T09:19:55.416Z,5.20
2022-08-25T09:25:52.603Z,5.82
2022-08-25T09:28:45.000Z,4.05
2022-08-25T09:31:28.737Z,4.13
2022-08-25T09:34:04.363Z,3.22
2022-08-25T09:36:37.912Z,5.43
2022-08-25T09:39:11.500Z,4.90
2022-08-25T09:41:52.604Z,3.78
2022-08-25T09:44:36.666Z,7.03
2022-08-25T09:47:25.282Z,5.45
2022-08-25T09:50:08.071Z,10.35
2022-08-25T09:52:53.508Z,7.22
2022-08-25T09:55:36.349Z,4.90
2022-08-25T09:58:20.571Z,7.13
2022-08-25T10:01:18.540Z,5.30
2022-08-25T10:04:04.189Z,3.92
2022-08-25T10:06:49.853Z,5.53
2022-08-25T10:09:48.143Z,3.90
2022-08-25T10:12:42.489Z,5.45
2022-08-25T10:15:29.441Z,5.28
2022-08-25T10:18:42.091Z,6.53
2022-08-25T10:21:22.708Z,5.97
2022-08-25T10:23:58.077Z,6.23
2022-08-25T10:27:04.744Z,9.68
2022-08-25T10:29:46.915Z,7.38
2022-08-25T10:32:31.879Z,7.50
2022-08-25T10:35:20.572Z,8.88
2022-08-25T10:38:12.271Z,10.38
2022-08-25T10:41:36.348Z,9.13
2022-08-25T10:44:42.623Z,7.68
2022-08-25T10:47:46.101Z,7.07
2022-08-25T10:50:41.006Z,5.68
2022-08-25T10:53:46.270Z,5.55
2022-08-25T10:56:43.948Z,7.63
2022-08-25T11:00:07.734Z,8.18
2022-08-25T11:02:56.266Z,8.65
2022-08-25T11:05:43.917Z,6.97
2022-08-25T11:08:43.067Z,8.18
2022-08-25T11:11:35.028Z,7.35
2022-08-25T11:14:36.648Z,6.25
2022-08-25T11:17:26.325Z,7.07
2022-08-25T11:20:06.021Z,7.88
2022-08-25T11:22:56.398Z,5.65
2022-08-25T11:25:31.271Z,6.00
2022-08-25T11:28:13.641Z,6.20
2022-08-25T11:30:44.044Z,6.25
2022-08-25T11:33:21.588Z,7.22
2022-08-25T11:35:59.206Z,6.93
2022-08-25T11:38:37.918Z,6.88
2022-08-25T11:41:29.108Z,5.78
2022-08-25T11:44:17.779Z,5.47
2022-08-25T11:47:21.495Z,6.35
2022-08-25T11:50:03.758Z,5.68
2022-08-25T11:52:39.990Z,4.88
2022-08-25T11:55:23.074Z,5.45
2022-08-25T11:58:17.120Z,6.10
2022-08-25T12:00:50.718Z,4.70
2022-08-25T12:03:38.082Z,5.07
2022-08-25T12:06:34.004Z,6.40
2022-08-25T12:09:07.162Z,5.63
2022-08-25T12:11:59.731Z,6.97
2022-08-25T12:14:30.411Z,6.05
2022-08-25T12:17:02.449Z,4.75
2022-08-25T12:19:38.778Z,5.78
2022-08-25T12:22:13.135Z,5.75
2022-08-25T12:24:47.597Z,5.32
2022-08-25T12:27:28.633Z,5.82
2022-08-25T12:30:29.702Z,5.65
2022-08-25T12:33:09.113Z,9.82
2022-08-25T12:36:01.940Z,8.80
2022-08-25T12:38:52.540Z,5.60
2022-08-25T12:41:24.956Z,5.60
2022-08-25T12:44:11.114Z,6.35
2022-08-25T12:46:46.465Z,5.88
2022-08-25T12:49:35.062Z,6.88
2022-08-25T12:52:36.920Z,7.70
2022-08-25T12:55:14.196Z,8.45
2022-08-25T12:57:59.980Z,6.50
2022-08-25T13:00:47.843Z,8.30
2022-08-25T13:04:05.363Z,7.25
2022-08-25T13:06:39.609Z,9.23
2022-08-25T13:09:32.271Z,8.30
2022-08-25T13:12:15.466Z,8.40
2022-08-25T13:14:53.693Z,8.25
2022-08-25T13:17:33.902Z,8.73
2022-08-25T13:20:33.690Z,13.18
2022-08-25T13:23:06.287Z,7.10
2022-08-25T13:25:38.045Z,8.10
2022-08-25T13:28:11.158Z,8.88
2022-08-25T13:30:41.955Z,11.00
2022-08-25T13:33:25.181Z,7.43
2022-08-25T13:36:17.319Z,9.02
2022-08-25T13:38:49.774Z,8.23
2022-08-25T13:41:23.483Z,7.25
2022-08-25T13:44:01.835Z,8.27
2022-08-25T13:46:35.480Z,8.73
2022-08-25T13:49:08.979Z,7.95
2022-08-25T13:51:40.947Z,9.70
2022-08-25T13:54:35.234Z,12.88
2022-08-25T13:57:20.508Z,11.95
2022-08-25T14:00:11.533Z,10.13
2022-08-25T14:02:49.726Z,9.57
2022-08-25T14:05:42.880Z,12.23
2022-08-25T14:08:36.317Z,7.10
2022-08-25T14:11:16.978Z,9.90
2022-08-25T14:13:47.968Z,7.93
2022-08-25T14:16:27.464Z,9.57
2022-08-25T14:19:02.406Z,9.85
2022-08-25T14:21:35.357Z,7.32
2022-08-25T14:24:11.524Z,5.57
2022-08-25T14:26:53.825Z,6.53
2022-08-25T14:29:25.431Z,6.65
2022-08-25T14:31:55.787Z,5.47
2022-08-25T14:34:31.518Z,5.10
2022-08-25T14:37:02.780Z,4.93
2022-08-25T14:39:37.181Z,5.88
2022-08-25T14:47:03.016Z,5.88
2022-08-25T14:54:25.035Z,6.45
2022-08-25T22:13:04.818Z,0.82
2022-08-25T22:15:35.071Z,0.70
2022-08-25T22:18:05.878Z,2.33
2022-08-25T22:20:36.154Z,0.45
2022-08-25T22:23:09.536Z,1.65
2022-08-25T22:25:40.529Z,1.58
2022-08-25T22:28:15.081Z,1.00
2022-08-25T22:30:58.127Z,1.92
2022-08-25T22:33:42.361Z,1.75
2022-08-25T22:36:28.046Z,0.63
2022-08-25T22:38:59.251Z,1.00
2022-08-25T22:41:35.716Z,0.82
2022-08-25T22:44:26.222Z,0.93
2022-08-25T22:46:56.881Z,0.60
2022-08-25T22:49:30.265Z,1.00
2022-08-25T22:52:00.674Z,1.60
2022-08-25T22:54:31.587Z,0.20
2022-08-25T22:57:06.483Z,0.75
2022-08-25T22:59:37.386Z,1.63
2022-08-25T23:02:08.986Z,0.68
2022-08-25T23:04:41.104Z,0.88
2022-08-25T23:07:14.624Z,0.75
2022-08-25T23:09:45.172Z,0.68
2022-08-25T23:12:16.437Z,0.82
2022-08-25T23:14:48.244Z,0.40
2022-08-25T23:17:20.559Z,1.90
2022-08-25T23:19:51.729Z,0.63
2022-08-25T23:22:22.468Z,0.68
2022-08-25T23:24:54.733Z,2.15
2022-08-25T23:27:25.979Z,2.28
2022-08-25T23:30:01.957Z,0.35
2022-08-25T23:35:02.899Z,1.00
2022-08-25T23:37:33.082Z,0.82
2022-08-25T23:40:03.456Z,1.55
2022-08-25T23:42:34.377Z,1.60
2022-08-25T23:45:09.532Z,2.60
2022-08-25T23:47:41.450Z,0.93
2022-08-25T23:50:14.735Z,1.17
2022-08-25T23:52:46.882Z,0.73
2022-08-25T23:55:17.641Z,0.90
2022-08-25T23:57:51.622Z,1.92
